Time;durP1;ratioP1;P1;durP2;ratioP2;P2;SDS_P1;SDS_P2;PMS_P1;PMS_P2;Temp;Humidity;BMP_temperature;BMP_pressure;BME280_temperature;BME280_humidity;BME280_pressure;Samples;Min_cycle;Max_cycle;Signal;HPM_P1;HPM_P2
2022/10/30 00:00:07;;;;;;;;;;;;;;;;;;5077626;28;19995;-68
2022/10/30 00:02:33;;;;;;;;;;;;;;;;;;5095455;28;19912;-68
2022/10/30 00:04:59;;;;;;;;;;;;;;;;;;5095757;28;19912;-68
2022/10/30 00:07:25;;;;;;;;;;;;;;;;;;5095644;28;20002;-68
2022/10/30 00:09:51;;;;;;;;;;;;;;;;;;5095087;28;19920;-68
2022/10/30 00:12:17;;;;;;;;;;;;;;;;;;5095004;28;20269;-68
2022/10/30 00:14:43;;;;;;;;;;;;;;;;;;5095064;28;20278;-68
2022/10/30 00:17:09;;;;;;;;;;;;;;;;;;5095039;28;20428;-68
2022/10/30 00:19:35;;;;;;;;;;;;;;;;;;5095912;28;20268;-68
2022/10/30 00:22:04;;;;;;;;;;;;;;;;;;5095339;28;19909;-68
2022/10/30 00:24:29;;;;;;;;;;;;;;;;;;5094996;28;19951;-68
2022/10/30 00:26:55;;;;;;;;;;;;;;;;;;5095199;28;19985;-68
2022/10/30 00:29:25;;;;;;;;;;;;;;;;;;5095173;28;19916;-69
2022/10/30 00:31:51;;;;;;;;;;;;;;;;;;5094809;28;19912;-68
2022/10/30 00:34:17;;;;;;;;;;;;;;;;;;5095716;28;20368;-68
2022/10/30 00:36:43;;;;;;;;;;;;;;;;;;5076897;28;20390;-68
2022/10/30 00:39:08;;;;;;;;;;;;;;;;;;5094684;28;19933;-68
2022/10/30 00:41:35;;;;;;;;;;;;;;;;;;5095327;28;19916;-68
2022/10/30 00:44:01;;;;;;;;;;;;;;;;;;5095129;28;19908;-68
2022/10/30 00:46:27;;;;;;;;;;;;;;;;;;5094557;28;19915;-68
2022/10/30 00:48:53;;;;;;;;;;;;;;;;;;5076625;28;19961;-66
2022/10/30 00:51:19;;;;;;;;;;;;;;;;;;5094792;28;19912;-68
2022/10/30 00:53:46;;;;;;;;;;;;;;;;;;5076866;28;19908;-65
2022/10/30 00:56:12;;;;;;;;;;;;;;;;;;5094695;28;19912;-68
2022/10/30 00:58:38;;;;;;;;;;;;;;;;;;5076109;28;20352;-68
2022/10/30 01:01:04;;;;;;;;;;;;;;;;;;5094589;28;20007;-68
2022/10/30 01:03:30;;;;;;;;;;;;;;;;;;5094578;28;19943;-68
2022/10/30 01:05:56;;;;;;;;;;;;;;;;;;5094132;28;19908;-68
2022/10/30 01:08:22;;;;;;;;;;;;;;;;;;5094524;28;19912;-68
2022/10/30 01:10:48;;;;;;;;;;;;;;;;;;5094321;28;19917;-68
2022/10/30 01:13:14;;;;;;;;;;;;;;;;;;5075898;28;20004;-68
2022/10/30 01:15:40;;;;;;;;;;;;;;;;;;5094489;28;19958;-68
2022/10/30 01:18:06;;;;;;;;;;;;;;;;;;5094336;28;19931;-68
2022/10/30 01:20:32;;;;;;;;;;;;;;;;;;5075788;28;19912;-68
2022/10/30 01:22:58;;;;;;;;;;;;;;;;;;5094295;28;19947;-68
2022/10/30 01:25:24;;;;;;;;;;;;;;;;;;5075949;28;20249;-68
2022/10/30 01:27:50;;;;;;;;;;;;;;;;;;5093841;28;19954;-68
2022/10/30 01:30:15;;;;;;;;;;;;;;;;;;5094170;28;19924;-68
2022/10/30 01:32:41;;;;;;;;;;;;;;;;;;5094350;28;19922;-68
2022/10/30 01:35:07;;;;;;;;;;;;;;;;;;5093721;28;19908;-69
2022/10/30 01:37:33;;;;;;;;;;;;;;;;;;5094195;28;19908;-68
2022/10/30 01:39:59;;;;;;;;;;;;;;;;;;5076066;28;19922;-68
2022/10/30 01:42:25;;;;;;;;;;;;;;;;;;5093577;28;20287;-66
2022/10/30 01:44:51;;;;;;;;;;;;;;;;;;5093985;28;20420;-66
2022/10/30 01:47:17;;;;;;;;;;;;;;;;;;5094410;28;20364;-68
2022/10/30 01:49:43;;;;;;;;;;;;;;;;;;5093312;28;19920;-66
2022/10/30 01:52:09;;;;;;;;;;;;;;;;;;5075858;28;19908;-66
2022/10/30 01:54:35;;;;;;;;;;;;;;;;;;5093875;28;19908;-66
2022/10/30 01:57:01;;;;;;;;;;;;;;;;;;5093786;28;19908;-66
2022/10/30 01:59:27;;;;;;;;;;;;;;;;;;5094019;28;19995;-66
2022/10/30 02:01:53;;;;;;;;;;;;;;;;;;5093378;28;19908;-66
2022/10/30 02:04:19;;;;;;;;;;;;;;;;;;5075756;28;19912;-66
2022/10/30 02:06:44;;;;;;;;;;;;;;;;;;5093764;28;19908;-67
2022/10/30 02:09:10;;;;;;;;;;;;;;;;;;5093339;28;19959;-66
2022/10/30 02:11:36;;;;;;;;;;;;;;;;;;5093769;28;19908;-67
2022/10/30 02:14:02;;;;;;;;;;;;;;;;;;5075572;28;19912;-67
2022/10/30 02:16:28;;;;;;;;;;;;;;;;;;5093592;28;19955;-66
2022/10/30 02:18:54;;;;;;;;;;;;;;;;;;5093717;28;19915;-66
2022/10/30 02:21:20;;;;;;;;;;;;;;;;;;5093733;28;19954;-66
2022/10/30 02:23:46;;;;;;;;;;;;;;;;;;5093238;28;19912;-67
2022/10/30 02:26:12;;;;;;;;;;;;;;;;;;5093586;28;19927;-66
2022/10/30 02:28:38;;;;;;;;;;;;;;;;;;5093559;28;19908;-67
2022/10/30 02:31:05;;;;;;;;;;;;;;;;;;5093108;28;19917;-67
2022/10/30 02:33:31;;;;;;;;;;;;;;;;;;5093616;28;19954;-66
2022/10/30 02:35:57;;;;;;;;;;;;;;;;;;5094202;28;20306;-67
2022/10/30 02:38:23;;;;;;;;;;;;;;;;;;5096918;28;20364;-67
2022/10/30 02:40:49;;;;;;;;;;;;;;;;;;5097603;28;20364;-67
2022/10/30 02:43:15;;;;;;;;;;;;;;;;;;5079060;28;19977;-66
2022/10/30 02:45:41;;;;;;;;;;;;;;;;;;5096943;28;19908;-67
2022/10/30 02:48:06;;;;;;;;;;;;;;;;;;5079005;28;20364;-67
2022/10/30 02:50:32;;;;;;;;;;;;;;;;;;5096920;28;19924;-67
2022/10/30 02:52:58;;;;;;;;;;;;;;;;;;5078550;28;20395;-67
2022/10/30 02:55:24;;;;;;;;;;;;;;;;;;5078868;28;19908;-67
2022/10/30 02:57:50;;;;;;;;;;;;;;;;;;5096997;28;19908;-67
2022/10/30 03:00:16;;;;;;;;;;;;;;;;;;5078380;28;19912;-67
2022/10/30 03:02:42;;;;;;;;;;;;;;;;;;5096881;28;20006;-67
2022/10/30 03:05:08;;;;;;;;;;;;;;;;;;5096367;28;19908;-67
2022/10/30 03:07:34;;;;;;;;;;;;;;;;;;5078661;28;19915;-67
2022/10/30 03:10:00;;;;;;;;;;;;;;;;;;5096703;28;19923;-67
2022/10/30 03:12:26;;;;;;;;;;;;;;;;;;5078122;28;19923;-67
2022/10/30 03:14:52;;;;;;;;;;;;;;;;;;5096845;28;19919;-67
2022/10/30 03:17:18;;;;;;;;;;;;;;;;;;5078433;28;19915;-68
2022/10/30 03:19:44;;;;;;;;;;;;;;;;;;5096326;28;19938;-67
2022/10/30 03:22:10;;;;;;;;;;;;;;;;;;5096489;28;19974;-67
2022/10/30 03:24:37;;;;;;;;;;;;;;;;;;5096413;28;19908;-67
2022/10/30 03:27:02;;;;;;;;;;;;;;;;;;5096002;28;19919;-67
2022/10/30 03:29:28;;;;;;;;;;;;;;;;;;5078097;28;19913;-67
2022/10/30 03:31:54;;;;;;;;;;;;;;;;;;5096340;28;19912;-67
2022/10/30 03:34:20;;;;;;;;;;;;;;;;;;5095927;28;19994;-67
2022/10/30 03:36:46;;;;;;;;;;;;;;;;;;5096335;28;19908;-68
2022/10/30 03:39:12;;;;;;;;;;;;;;;;;;5096283;28;19935;-68
2022/10/30 03:41:38;;;;;;;;;;;;;;;;;;5095828;28;19908;-68
2022/10/30 03:44:04;;;;;;;;;;;;;;;;;;5078003;28;19908;-68
2022/10/30 03:46:30;;;;;;;;;;;;;;;;;;5096117;28;19914;-67
2022/10/30 03:48:56;;;;;;;;;;;;;;;;;;5095346;28;19973;-67
2022/10/30 03:51:22;;;;;;;;;;;;;;;;;;5096012;28;20008;-67
2022/10/30 03:53:48;;;;;;;;;;;;;;;;;;5095894;28;19908;-67
2022/10/30 03:56:14;;;;;;;;;;;;;;;;;;5095402;28;19908;-68
2022/10/30 03:58:40;;;;;;;;;;;;;;;;;;5095834;28;19915;-67
2022/10/30 04:01:06;;;;;;;;;;;;;;;;;;5095804;28;19915;-67
2022/10/30 04:03:31;;;;;;;;;;;;;;;;;;5095293;28;19974;-67
2022/10/30 04:05:57;;;;;;;;;;;;;;;;;;5095617;28;19959;-67
2022/10/30 04:08:23;;;;;;;;;;;;;;;;;;5095504;28;19908;-67
2022/10/30 04:10:49;;;;;;;;;;;;;;;;;;5095556;28;19961;-67
2022/10/30 04:13:15;;;;;;;;;;;;;;;;;;5095469;28;20015;-67
2022/10/30 04:15:41;;;;;;;;;;;;;;;;;;5095253;28;19915;-67
2022/10/30 04:18:07;;;;;;;;;;;;;;;;;;5095422;28;19916;-67
2022/10/30 04:20:33;;;;;;;;;;;;;;;;;;5095445;28;19908;-67
2022/10/30 04:22:59;;;;;;;;;;;;;;;;;;5094932;28;19919;-67
2022/10/30 04:25:25;;;;;;;;;;;;;;;;;;5077116;28;19908;-67
2022/10/30 04:27:54;;;;;;;;;;;;;;;;;;5095278;28;19908;-67
2022/10/30 04:30:33;;;;;;;;;;;;;;;;;;5095259;28;19916;-67
2022/10/30 04:32:59;;;;;;;;;;;;;;;;;;5095480;28;19912;-67
2022/10/30 04:35:25;;;;;;;;;;;;;;;;;;5095740;28;19908;-68
2022/10/30 04:37:51;;;;;;;;;;;;;;;;;;5094748;28;19912;-67
2022/10/30 04:40:17;;;;;;;;;;;;;;;;;;5095061;28;19954;-67
2022/10/30 04:42:43;;;;;;;;;;;;;;;;;;5095188;28;19908;-67
2022/10/30 04:45:09;;;;;;;;;;;;;;;;;;5076472;28;19931;-68
2022/10/30 04:47:35;;;;;;;;;;;;;;;;;;5094893;28;19908;-67
2022/10/30 04:50:01;;;;;;;;;;;;;;;;;;5094612;28;19920;-67
2022/10/30 04:52:27;;;;;;;;;;;;;;;;;;5076234;28;19908;-66
2022/10/30 04:54:53;;;;;;;;;;;;;;;;;;5094786;28;19908;-67
2022/10/30 04:57:19;;;;;;;;;;;;;;;;;;5094674;28;19908;-67
2022/10/30 04:59:45;;;;;;;;;;;;;;;;;;5093760;28;19908;-66
2022/10/30 05:02:11;;;;;;;;;;;;;;;;;;5094663;28;19916;-66
2022/10/30 05:04:37;;;;;;;;;;;;;;;;;;5094135;28;19908;-66
2022/10/30 05:07:03;;;;;;;;;;;;;;;;;;5076342;28;19912;-67
2022/10/30 05:09:29;;;;;;;;;;;;;;;;;;5094490;28;19918;-67
2022/10/30 05:11:55;;;;;;;;;;;;;;;;;;5094128;28;19955;-67
2022/10/30 05:14:20;;;;;;;;;;;;;;;;;;5094700;28;19915;-67
2022/10/30 05:16:46;;;;;;;;;;;;;;;;;;5094357;28;19970;-67
2022/10/30 05:19:12;;;;;;;;;;;;;;;;;;5093947;28;20018;-67
2022/10/30 05:21:38;;;;;;;;;;;;;;;;;;5094275;28;19908;-67
2022/10/30 05:24:04;;;;;;;;;;;;;;;;;;5094123;28;20338;-66
2022/10/30 05:26:30;;;;;;;;;;;;;;;;;;5094052;28;20284;-66
2022/10/30 05:28:56;;;;;;;;;;;;;;;;;;5076314;28;20413;-66
2022/10/30 05:31:22;;;;;;;;;;;;;;;;;;5094324;28;20019;-67
2022/10/30 05:33:48;;;;;;;;;;;;;;;;;;5093744;28;19908;-67
2022/10/30 05:36:14;;;;;;;;;;;;;;;;;;5093971;28;19909;-67
2022/10/30 05:38:40;;;;;;;;;;;;;;;;;;5094005;28;19908;-67
2022/10/30 05:41:06;;;;;;;;;;;;;;;;;;5093633;28;19933;-67
2022/10/30 05:43:32;;;;;;;;;;;;;;;;;;5094040;28;19962;-67
2022/10/30 05:45:58;;;;;;;;;;;;;;;;;;5093952;28;19908;-67
2022/10/30 05:48:23;;;;;;;;;;;;;;;;;;5093550;28;19908;-67
2022/10/30 05:50:49;;;;;;;;;;;;;;;;;;5093748;28;19920;-67
2022/10/30 05:53:15;;;;;;;;;;;;;;;;;;5093952;28;19908;-67
2022/10/30 05:55:41;;;;;;;;;;;;;;;;;;5093453;28;20352;-67
2022/10/30 05:58:07;;;;;;;;;;;;;;;;;;5075832;28;20368;-67
2022/10/30 06:00:33;;;;;;;;;;;;;;;;;;5094074;28;19909;-67
2022/10/30 06:02:59;;;;;;;;;;;;;;;;;;5093443;28;19912;-67
2022/10/30 06:05:25;;;;;;;;;;;;;;;;;;5093751;28;19915;-68
2022/10/30 06:07:51;;;;;;;;;;;;;;;;;;5093753;28;20289;-68
2022/10/30 06:10:17;;;;;;;;;;;;;;;;;;5093281;28;20288;-69
2022/10/30 06:12:43;;;;;;;;;;;;;;;;;;5097176;28;20332;-68
2022/10/30 06:15:09;;;;;;;;;;;;;;;;;;5097415;28;20371;-68
2022/10/30 06:17:35;;;;;;;;;;;;;;;;;;5098069;28;20010;-68
2022/10/30 06:20:01;;;;;;;;;;;;;;;;;;5097759;28;19908;-68
2022/10/30 06:22:27;;;;;;;;;;;;;;;;;;5079181;28;19915;-68
2022/10/30 06:24:53;;;;;;;;;;;;;;;;;;5097568;28;19947;-68
2022/10/30 06:27:18;;;;;;;;;;;;;;;;;;5097503;28;20248;-67
2022/10/30 06:29:44;;;;;;;;;;;;;;;;;;5097071;28;20366;-68
2022/10/30 06:32:10;;;;;;;;;;;;;;;;;;5098070;28;20405;-68
2022/10/30 06:34:36;;;;;;;;;;;;;;;;;;5097447;28;20429;-68
2022/10/30 06:37:02;;;;;;;;;;;;;;;;;;5096981;28;19926;-68
2022/10/30 06:39:28;;;;;;;;;;;;;;;;;;5097532;28;20003;-67
2022/10/30 06:41:54;;;;;;;;;;;;;;;;;;5079228;28;19908;-67
2022/10/30 06:44:20;;;;;;;;;;;;;;;;;;5096931;28;19908;-68
2022/10/30 06:46:46;;;;;;;;;;;;;;;;;;5097285;28;19908;-68
2022/10/30 06:49:12;;;;;;;;;;;;;;;;;;5096896;28;19912;-67
2022/10/30 06:51:38;;;;;;;;;;;;;;;;;;5096642;28;20260;-67
2022/10/30 06:54:04;;;;;;;;;;;;;;;;;;5097164;28;20268;-68
2022/10/30 06:56:30;;;;;;;;;;;;;;;;;;5097094;28;20360;-68
2022/10/30 06:58:55;;;;;;;;;;;;;;;;;;5096652;28;20398;-68
2022/10/30 07:01:21;;;;;;;;;;;;;;;;;;5097003;28;19915;-68
2022/10/30 07:03:47;;;;;;;;;;;;;;;;;;5097032;28;20007;-67
2022/10/30 07:06:13;;;;;;;;;;;;;;;;;;5096443;28;19908;-67
2022/10/30 07:08:39;;;;;;;;;;;;;;;;;;5096809;28;19915;-67
2022/10/30 07:11:05;;;;;;;;;;;;;;;;;;5078609;28;19916;-67
2022/10/30 07:13:31;;;;;;;;;;;;;;;;;;5096332;28;19951;-67
2022/10/30 07:15:57;;;;;;;;;;;;;;;;;;5096747;28;19908;-68
2022/10/30 07:18:23;;;;;;;;;;;;;;;;;;5077979;28;19908;-67
2022/10/30 07:20:49;;;;;;;;;;;;;;;;;;5096415;28;19908;-67
2022/10/30 07:23:15;;;;;;;;;;;;;;;;;;5096018;28;20003;-67
2022/10/30 07:25:41;;;;;;;;;;;;;;;;;;5095918;28;19915;-67
2022/10/30 07:28:07;;;;;;;;;;;;;;;;;;5096494;28;19908;-66
2022/10/30 07:30:33;;;;;;;;;;;;;;;;;;5096550;28;20414;-67
2022/10/30 07:32:59;;;;;;;;;;;;;;;;;;5095948;28;20001;-69
2022/10/30 07:35:25;;;;;;;;;;;;;;;;;;5096723;28;19914;-69
2022/10/30 07:37:50;;;;;;;;;;;;;;;;;;5096080;28;20284;-67
2022/10/30 07:40:16;;;;;;;;;;;;;;;;;;5095984;28;20360;-66
2022/10/30 07:45:39;;;;;;;;;;;;;;;;;;5112264;27;19916;-67
2022/10/30 07:48:05;;;;;;;;;;;;;;;;;;5111370;28;20015;-67
2022/10/30 07:50:31;;;;;;;;;;;;;;;;;;5110460;28;19915;-69
2022/10/30 07:52:57;;;;;;;;;;;;;;;;;;5110464;28;19919;-68
2022/10/30 07:55:23;;;;;;;;;;;;;;;;;;5111416;28;20376;-68
2022/10/30 07:57:49;;;;;;;;;;;;;;;;;;5111623;28;19912;-68
2022/10/30 08:00:15;;;;;;;;;;;;;;;;;;5111636;28;19908;-69
2022/10/30 08:02:41;;;;;;;;;;;;;;;;;;5111323;28;19954;-67
2022/10/30 08:05:07;;;;;;;;;;;;;;;;;;5111425;28;19959;-67
2022/10/30 08:07:33;;;;;;;;;;;;;;;;;;5111459;28;19915;-67
2022/10/30 08:09:59;;;;;;;701.57;325.63;;;;;;;;;;5110126;28;20371;-66
2022/10/30 08:12:25;;;;;;;;;;;;;;;;;;5111434;28;20375;-67
2022/10/30 08:14:51;;;;;;;;;;;;;;;;;;5110832;28;19998;-69
2022/10/30 08:17:17;;;;;;;;;;;;;;;;;;5110246;28;20275;-67
2022/10/30 08:19:43;;;;;;;;;;;;;;;;;;5111950;28;19904;-67
2022/10/30 08:22:09;;;;;;;;;;;;;;;;;;5109507;28;19911;-68
2022/10/30 08:24:35;;;;;;;;;;;;;;;;;;5112034;28;19915;-69
2022/10/30 08:27:01;;;;;;;;;;;;;;;;;;5110878;28;20367;-69
2022/10/30 08:29:47;;;;;;;;;;;;;;;;;;5112285;27;20373;-67
2022/10/30 08:32:13;;;;;;;;;;;;;;;;;;5111796;28;19985;-69
2022/10/30 08:34:39;;;;;;;414.27;253.20;;;;;;;;;;5109173;28;20391;-69
2022/10/30 08:37:51;;;;;;;355.60;241.80;;;;;;;;;;5089684;27;20419;-67
2022/10/30 08:42:25;;;;;;;;;;;;;;;;;;5092008;27;19923;-68
2022/10/30 08:44:52;;;;;;;;;;;;;;;;;;5090999;28;19963;-68
2022/10/30 08:47:18;;;;;;;;;;;;;;;;;;5090053;28;20283;-68
2022/10/30 08:49:44;;;;;;;;;;;;;;;;;;5091462;28;19908;-68
2022/10/30 08:52:10;;;;;;;;;;;;;;;;;;5091174;28;19908;-68
2022/10/30 08:56:50;;;;;;;;;;;;;;;;;;5112283;27;19916;-67
2022/10/30 08:59:16;;;;;;;;;;;;;;;;;;5111855;28;19934;-67
2022/10/30 09:01:58;;;;;;;;;;;;;;;;;;5111815;27;19916;-67
2022/10/30 09:04:24;;;;;;;;;;;;;;;;;;5111507;28;19912;-67
2022/10/30 09:06:50;;;;;;;;;;;;;;;;;;5111735;28;20379;-67
2022/10/30 09:09:16;;;;;;;;;;;;;;;;;;5110392;28;20368;-67
2022/10/30 09:11:42;;;;;;;;;;;;;;;;;;5111411;28;19934;-67
2022/10/30 09:14:08;;;;;;;;;;;;;;;;;;5110559;28;19916;-67
2022/10/30 09:16:34;;;;;;;;;;;;;;;;;;5111787;28;20283;-67
2022/10/30 09:18:59;;;;;;;;;;;;;;;;;;5111242;28;19908;-68
2022/10/30 09:21:25;;;;;;;;;;;;;;;;;;5111338;28;19916;-68
2022/10/30 09:23:51;;;;;;;;;;;;;;;;;;5111345;28;19908;-68
2022/10/30 09:27:23;;;;;;;455.13;267.48;;;;;;;;;;5071399;28;20441;-67
2022/10/30 09:31:41;;;;;;;504.60;288.33;;;;;;;;;;5070834;28;20384;-67
2022/10/30 09:34:07;;;;;;;462.13;283.23;;;;;;;;;;5069219;28;20079;-68
2022/10/30 09:36:34;;;;;;;421.33;263.90;;;;;;;;;;5069470;28;20489;-68
2022/10/30 09:39:00;;;;;;;374.20;255.45;;;;;;;;;;5070463;28;20381;-67
2022/10/30 09:43:15;;;;;;;529.40;305.70;;;;;;;;;;5071071;28;20433;-67
2022/10/30 09:47:17;;;;;;;798.10;332.90;;;;;;;;;;5110384;27;20851;-68
2022/10/30 09:51:13;;;;;;;246.15;205.38;;;;;;;;;;5090587;27;20362;-67
2022/10/30 09:53:39;;;;;;;;;;;;;;;;;;5091505;28;20028;-67
2022/10/30 09:56:05;;;;;;;;;;;;;;;;;;5091309;28;19950;-67
2022/10/30 09:58:31;;;;;;;;;;;;;;;;;;5089990;28;19999;-67
2022/10/30 10:00:57;;;;;;;;;;;;;;;;;;5091100;28;19904;-67
2022/10/30 10:03:23;;;;;;;;;;;;;;;;;;5091204;28;19904;-68
2022/10/30 10:05:49;;;;;;;;;;;;;;;;;;5091111;28;20376;-67
2022/10/30 10:08:15;;;;;;;;;;;;;;;;;;5090763;28;20359;-67
2022/10/30 10:10:41;;;;;;;;;;;;;;;;;;5091011;28;20352;-67
2022/10/30 10:13:07;;;;;;;;;;;;;;;;;;5091043;28;19904;-67
2022/10/30 10:18:06;;;;;;;;;;;;;;;;;;5112543;27;20388;-67
2022/10/30 10:20:32;;;;;;;;;;;;;;;;;;5110495;28;19957;-67
2022/10/30 10:22:58;;;;;;;;;;;;;;;;;;5111288;28;19918;-67
2022/10/30 10:25:24;;;;;;;;;;;;;;;;;;5110379;28;19911;-67
2022/10/30 10:27:50;;;;;;;;;;;;;;;;;;5111828;28;19957;-68
2022/10/30 10:30:16;;;;;;;;;;;;;;;;;;5111198;28;19911;-68
2022/10/30 10:32:42;;;;;;;;;;;;;;;;;;5110305;28;20279;-68
2022/10/30 10:35:07;;;;;;;;;;;;;;;;;;5111918;28;19911;-68
2022/10/30 10:37:33;;;;;;;;;;;;;;;;;;5111207;28;19912;-68
2022/10/30 10:39:59;;;;;;;;;;;;;;;;;;5111341;28;19942;-68
2022/10/30 10:42:25;;;;;;;;;;;;;;;;;;5110496;28;19907;-68
2022/10/30 10:44:51;;;;;;;;;;;;;;;;;;5110064;28;20374;-68
2022/10/30 10:47:17;;;;;;;;;;;;;;;;;;5111154;28;20421;-67
2022/10/30 10:51:33;;;;;;;;;;;;;;;;;;5111470;27;20794;-69
2022/10/30 10:53:59;;;;;;;;;;;;;;;;;;5113055;28;19908;-68
2022/10/30 10:56:25;;;;;;;;;;;;;;;;;;5111299;28;19935;-68
2022/10/30 10:58:51;;;;;;;;;;;;;;;;;;5110431;28;19904;-68
2022/10/30 11:01:17;;;;;;;;;;;;;;;;;;5111575;28;19904;-68
2022/10/30 11:03:43;;;;;;;;;;;;;;;;;;5109966;28;19912;-68
2022/10/30 11:06:09;;;;;;;;;;;;;;;;;;5111477;28;19939;-68
2022/10/30 11:08:35;;;;;;;;;;;;;;;;;;5110135;28;20276;-68
2022/10/30 11:11:01;;;;;;;;;;;;;;;;;;5111076;28;19912;-68
2022/10/30 11:13:29;;;;;;;305.33;236.63;;;;;;;;;;5110144;28;20397;-68
2022/10/30 11:15:55;;;;;;;;;;;;;;;;;;5111480;28;20020;-68
2022/10/30 11:18:21;;;;;;;;;;;;;;;;;;5109645;28;19904;-68
2022/10/30 11:20:47;;;;;;;;;;;;;;;;;;5111370;28;19904;-68
2022/10/30 11:23:13;;;;;;;;;;;;;;;;;;5111171;28;19915;-68
2022/10/30 11:25:39;;;;;;;;;;;;;;;;;;5110803;28;19911;-68
2022/10/30 11:28:05;;;;;;;;;;;;;;;;;;5111120;28;19942;-68
2022/10/30 11:30:31;;;;;;;;;;;;;;;;;;5111233;28;19956;-68
2022/10/30 11:32:57;;;;;;;;;;;;;;;;;;5110656;28;19947;-69
2022/10/30 11:35:23;;;;;;;;;;;;;;;;;;5109794;28;19915;-68
2022/10/30 11:37:49;;;;;;;;;;;;;;;;;;5109519;28;19950;-68
2022/10/30 11:40:15;;;;;;;;;;;;;;;;;;5110425;28;19943;-68
2022/10/30 11:42:41;;;;;;;;;;;;;;;;;;5111096;28;19907;-67
2022/10/30 11:45:07;;;;;;;;;;;;;;;;;;5110736;28;19927;-67
2022/10/30 11:47:33;;;;;;;;;;;;;;;;;;5110314;28;19911;-67
2022/10/30 11:50:01;;;;;;;385.42;263.30;;;;;;;;;;5109900;28;20519;-68
2022/10/30 11:52:26;;;;;;;;;;;;;;;;;;5110753;28;20020;-67
2022/10/30 11:54:52;;;;;;;;;;;;;;;;;;5110240;28;20381;-68
2022/10/30 11:57:18;;;;;;;;;;;;;;;;;;5111135;28;19996;-68
2022/10/30 11:59:45;;;;;;;417.60;271.43;;;;;;;;;;5108771;28;20860;-67
2022/10/30 12:02:11;;;;;;;;;;;;;;;;;;5101212;28;20081;-68
2022/10/30 12:04:37;;;;;;;;;;;;;;;;;;5096775;28;20317;-68
2022/10/30 12:07:07;;;;;;;413.40;275.83;;;;;;;;;;5094034;28;20898;-68
2022/10/30 12:09:33;;;;;;;;;;;;;;;;;;5095421;28;20506;-68
2022/10/30 12:11:59;;;;;;;;;;;;;;;;;;5097374;28;19908;-68
2022/10/30 12:14:25;;;;;;;;;;;;;;;;;;5096303;28;20359;-68
2022/10/30 12:16:50;;;;;;;;;;;;;;;;;;5096824;28;20368;-69
2022/10/30 12:19:16;;;;;;;;;;;;;;;;;;5096593;28;19949;-68
2022/10/30 12:21:42;;;;;;;;;;;;;;;;;;5096251;28;19942;-68
2022/10/30 12:24:09;;;;;;;;;;;;;;;;;;5096800;28;19911;-68
2022/10/30 12:26:37;;;;;;;404.58;269.20;;;;;;;;;;5094826;28;20393;-68
2022/10/30 12:29:03;;;;;;;;;;;;;;;;;;5095943;28;20024;-68
2022/10/30 12:31:29;;;;;;;;;;;;;;;;;;5094966;28;19912;-68
2022/10/30 12:33:55;;;;;;;;;;;;;;;;;;5096273;28;19911;-68
2022/10/30 12:36:21;;;;;;;;;;;;;;;;;;5095924;28;19908;-68
2022/10/30 12:38:50;;;;;;;356.02;260.15;;;;;;;;;;5095747;28;20240;-67
2022/10/30 12:41:16;;;;;;;;;;;;;;;;;;5096095;28;20585;-67
2022/10/30 12:43:42;;;;;;;;;;;;;;;;;;5095781;28;19907;-67
2022/10/30 12:46:08;;;;;;;;;;;;;;;;;;5095923;28;19904;-67
2022/10/30 12:48:36;;;;;;;;;;;;;;;;;;5095981;28;19908;-67
2022/10/30 12:51:02;;;;;;;;;;;;;;;;;;5095345;28;19939;-67
2022/10/30 12:53:27;;;;;;;;;;;;;;;;;;5094619;28;20364;-68
2022/10/30 12:55:53;;;;;;;;;;;;;;;;;;5094272;28;19908;-68
2022/10/30 12:58:19;;;;;;;;;;;;;;;;;;5095743;28;20383;-68
2022/10/30 13:00:45;;;;;;;;;;;;;;;;;;5095760;28;19911;-68
2022/10/30 13:03:11;;;;;;;;;;;;;;;;;;5095294;28;19911;-68
2022/10/30 13:05:37;;;;;;;;;;;;;;;;;;5095610;28;19949;-68
2022/10/30 13:08:03;;;;;;;;;;;;;;;;;;5095555;28;20352;-68
2022/10/30 13:10:29;;;;;;;;;;;;;;;;;;5095080;28;19912;-68
2022/10/30 13:12:57;;;;;;;;;;;;;;;;;;5094976;28;19904;-66
2022/10/30 13:15:23;;;;;;;;;;;;;;;;;;5095419;28;20268;-68
2022/10/30 13:17:49;;;;;;;;;;;;;;;;;;5094899;28;19926;-67
2022/10/30 13:20:16;;;;;;;;;;;;;;;;;;5094067;28;19905;-66
2022/10/30 13:22:41;;;;;;;;;;;;;;;;;;5095555;28;19957;-66
2022/10/30 13:25:07;;;;;;;;;;;;;;;;;;5095081;28;20278;-67
2022/10/30 13:27:37;;;;;;;;;;;;;;;;;;5095225;28;19908;-67
2022/10/30 13:30:03;;;;;;;;;;;;;;;;;;5095971;28;19923;-67
2022/10/30 13:32:29;;;;;;;;;;;;;;;;;;5094994;28;19908;-68
2022/10/30 13:34:55;;;;;;;;;;;;;;;;;;5095453;28;19954;-69
2022/10/30 13:37:21;;;;;;;;;;;;;;;;;;5093810;28;20372;-68
2022/10/30 13:39:47;;;;;;;;;;;;;;;;;;5094640;28;19995;-67
2022/10/30 13:42:13;;;;;;;;;;;;;;;;;;5095678;28;19915;-67
2022/10/30 13:44:39;;;;;;;;;;;;;;;;;;5094949;28;19904;-67
2022/10/30 13:47:05;;;;;;;;;;;;;;;;;;5094459;28;19990;-67
2022/10/30 13:49:31;;;;;;;;;;;;;;;;;;5093371;28;19916;-67
2022/10/30 13:51:57;;;;;;;;;;;;;;;;;;5094906;28;19971;-68
2022/10/30 13:54:22;;;;;;;;;;;;;;;;;;5094554;28;19911;-68
2022/10/30 13:56:48;;;;;;;;;;;;;;;;;;5093403;28;19943;-68
2022/10/30 13:59:14;;;;;;;;;;;;;;;;;;5094251;28;20374;-69
2022/10/30 14:01:40;;;;;;;;;;;;;;;;;;5093418;28;19904;-66
2022/10/30 14:04:06;;;;;;;;;;;;;;;;;;5094820;28;19908;-68
2022/10/30 14:06:32;;;;;;;;;;;;;;;;;;5094398;28;19908;-67
2022/10/30 14:08:58;;;;;;;;;;;;;;;;;;5094510;28;19904;-67
2022/10/30 14:11:24;;;;;;;;;;;;;;;;;;5094283;28;19919;-67
2022/10/30 14:13:50;;;;;;;;;;;;;;;;;;5094186;28;19904;-67
2022/10/30 14:16:16;;;;;;;;;;;;;;;;;;5093089;28;19904;-67
2022/10/30 14:18:42;;;;;;;;;;;;;;;;;;5092994;28;19919;-67
2022/10/30 14:21:08;;;;;;;;;;;;;;;;;;5092660;28;19904;-67
2022/10/30 14:23:34;;;;;;;;;;;;;;;;;;5094274;28;19926;-67
2022/10/30 14:26:00;;;;;;;;;;;;;;;;;;5094005;28;20050;-67
2022/10/30 14:28:26;;;;;;;;;;;;;;;;;;5092536;28;19957;-70
2022/10/30 14:30:52;;;;;;;;;;;;;;;;;;5092830;28;19950;-68
2022/10/30 14:33:18;;;;;;;;;;;;;;;;;;5094203;28;19912;-69
2022/10/30 14:35:44;;;;;;;;;;;;;;;;;;5093704;28;19934;-68
2022/10/30 14:38:10;;;;;;;;;;;;;;;;;;5094217;28;19904;-68
2022/10/30 14:40:36;;;;;;;;;;;;;;;;;;5094029;28;20286;-68
2022/10/30 14:43:02;;;;;;;;;;;;;;;;;;5093827;28;19964;-69
2022/10/30 14:45:28;;;;;;;;;;;;;;;;;;5094031;28;20002;-68
2022/10/30 14:47:54;;;;;;;;;;;;;;;;;;5093990;28;19908;-68
2022/10/30 14:50:20;;;;;;;;;;;;;;;;;;5091979;28;19915;-68
2022/10/30 14:52:46;;;;;;;;;;;;;;;;;;5094106;28;20367;-68
2022/10/30 14:55:12;;;;;;;;;;;;;;;;;;5094051;28;20360;-68
2022/10/30 14:57:38;;;;;;;;;;;;;;;;;;5092201;28;19911;-68
2022/10/30 15:00:04;;;;;;;;;;;;;;;;;;5093859;28;19904;-68
2022/10/30 15:02:30;;;;;;;;;;;;;;;;;;5093528;28;19990;-68
2022/10/30 15:04:56;;;;;;;;;;;;;;;;;;5093728;28;20359;-68
2022/10/30 15:07:22;;;;;;;;;;;;;;;;;;5093989;28;20413;-68
2022/10/30 15:09:48;;;;;;;;;;;;;;;;;;5093324;28;19981;-68
2022/10/30 15:12:26;;;;;;;536.13;306.47;;;;;;;;;;5092733;28;20389;-69
2022/10/30 15:14:52;;;;;;;;;;;;;;;;;;5092443;28;20024;-68
2022/10/30 15:17:19;;;;;;;;;;;;;;;;;;5091926;28;19904;-68
2022/10/30 15:19:45;;;;;;;;;;;;;;;;;;5092431;28;19910;-68
2022/10/30 15:22:10;;;;;;;;;;;;;;;;;;5093673;28;19904;-68
2022/10/30 15:24:39;;;;;;;189.70;172.52;;;;;;;;;;5091761;28;20382;-68
2022/10/30 15:27:05;;;;;;;;;;;;;;;;;;5093601;28;20032;-68
2022/10/30 15:29:31;;;;;;;;;;;;;;;;;;5094450;28;20010;-68
2022/10/30 15:31:58;;;;;;;;;;;;;;;;;;5095343;28;19948;-68
2022/10/30 15:34:24;;;;;;;;;;;;;;;;;;5093954;28;19996;-69
2022/10/30 15:36:50;;;;;;;;;;;;;;;;;;5095479;28;19911;-68
2022/10/30 15:39:16;;;;;;;;;;;;;;;;;;5097975;28;19904;-69
2022/10/30 15:41:42;;;;;;;;;;;;;;;;;;5097941;28;19904;-69
2022/10/30 15:44:08;;;;;;;;;;;;;;;;;;5099334;28;20306;-69
2022/10/30 15:46:34;;;;;;;;;;;;;;;;;;5097421;28;19908;-68
2022/10/30 15:48:59;;;;;;;;;;;;;;;;;;5097816;28;20263;-67
2022/10/30 15:51:25;;;;;;;;;;;;;;;;;;5095510;28;20366;-67
2022/10/30 15:53:51;;;;;;;;;;;;;;;;;;5096641;28;20391;-67
2022/10/30 15:56:17;;;;;;;;;;;;;;;;;;5095650;28;20379;-67
2022/10/30 15:58:43;;;;;;;;;;;;;;;;;;5095465;28;19995;-67
2022/10/30 16:01:09;;;;;;;;;;;;;;;;;;5096861;28;19904;-67
2022/10/30 16:03:35;;;;;;;;;;;;;;;;;;5096881;28;19904;-67
2022/10/30 16:06:01;;;;;;;;;;;;;;;;;;5096496;28;20321;-67
2022/10/30 16:08:27;;;;;;;;;;;;;;;;;;5096819;28;20381;-67
2022/10/30 16:10:53;;;;;;;;;;;;;;;;;;5096653;28;20398;-67
2022/10/30 16:13:19;;;;;;;;;;;;;;;;;;5096785;28;20279;-67
2022/10/30 16:15:46;;;;;;;;;;;;;;;;;;5097206;28;20375;-67
2022/10/30 16:18:12;;;;;;;;;;;;;;;;;;5096583;28;19940;-68
2022/10/30 16:20:38;;;;;;;;;;;;;;;;;;5095400;28;19904;-69
2022/10/30 16:23:37;;;;;;;;;;;;;;;;;;5112099;27;19916;-67
2022/10/30 16:26:03;;;;;;;;;;;;;;;;;;5111768;28;20343;-68
2022/10/30 16:28:29;;;;;;;;;;;;;;;;;;5111340;28;19915;-69
2022/10/30 16:30:55;;;;;;;;;;;;;;;;;;5111661;28;19908;-69
2022/10/30 16:33:20;;;;;;;;;;;;;;;;;;5111645;28;20249;-69
2022/10/30 16:35:46;;;;;;;;;;;;;;;;;;5111235;28;19912;-69
2022/10/30 16:42:00;;;;;;;;;;;;;;;;;;5091172;27;19917;-67
2022/10/30 16:44:26;;;;;;;;;;;;;;;;;;5090342;28;19951;-66
2022/10/30 16:46:52;;;;;;;;;;;;;;;;;;5091317;28;19944;-68
2022/10/30 16:49:18;;;;;;;;;;;;;;;;;;5091198;28;20361;-68
2022/10/30 16:51:44;;;;;;;;;;;;;;;;;;5091257;28;19912;-68